sensor_id;sensor_type;location;lat;lon;timestamp;P1;durP1;ratioP1;P2;durP2;ratioP2
44810;SDS011;30526;52.184;4.476;2022-07-29T00:01:23;1.80;;;0.88;;
44810;SDS011;30526;52.184;4.476;2022-07-29T00:03:49;2.78;;;0.95;;
44810;SDS011;30526;52.184;4.476;2022-07-29T00:06:15;3.50;;;0.98;;
44810;SDS011;30526;52.184;4.476;2022-07-29T00:08:41;3.50;;;0.80;;
44810;SDS011;30526;52.184;4.476;2022-07-29T00:11:07;2.63;;;1.08;;
44810;SDS011;30526;52.184;4.476;2022-07-29T00:13:33;4.28;;;0.82;;
44810;SDS011;30526;52.184;4.476;2022-07-29T00:15:59;1.38;;;0.90;;
44810;SDS011;30526;52.184;4.476;2022-07-29T00:18:25;3.83;;;1.00;;
44810;SDS011;30526;52.184;4.476;2022-07-29T00:20:51;2.42;;;0.98;;
44810;SDS011;30526;52.184;4.476;2022-07-29T00:23:17;3.40;;;0.95;;
44810;SDS011;30526;52.184;4.476;2022-07-29T00:25:43;1.52;;;1.08;;
44810;SDS011;30526;52.184;4.476;2022-07-29T00:28:09;1.83;;;1.10;;
44810;SDS011;30526;52.184;4.476;2022-07-29T00:30:35;2.90;;;1.00;;
44810;SDS011;30526;52.184;4.476;2022-07-29T00:33:01;3.47;;;1.50;;
44810;SDS011;30526;52.184;4.476;2022-07-29T00:35:27;3.83;;;1.02;;
44810;SDS011;30526;52.184;4.476;2022-07-29T00:38:14;1.70;;;1.00;;
44810;SDS011;30526;52.184;4.476;2022-07-29T00:40:41;4.82;;;1.08;;
44810;SDS011;30526;52.184;4.476;2022-07-29T00:43:07;5.65;;;1.10;;
44810;SDS011;30526;52.184;4.476;2022-07-29T00:45:33;3.63;;;0.93;;
44810;SDS011;30526;52.184;4.476;2022-07-29T00:47:59;1.52;;;1.00;;
44810;SDS011;30526;52.184;4.476;2022-07-29T00:50:25;4.43;;;1.00;;
44810;SDS011;30526;52.184;4.476;2022-07-29T00:52:51;0.77;;;0.75;;
44810;SDS011;30526;52.184;4.476;2022-07-29T00:55:18;1.73;;;0.90;;
44810;SDS011;30526;52.184;4.476;2022-07-29T00:57:44;3.28;;;1.00;;
44810;SDS011;30526;52.184;4.476;2022-07-29T01:00:11;2.28;;;1.00;;
44810;SDS011;30526;52.184;4.476;2022-07-29T01:02:38;2.40;;;0.93;;
44810;SDS011;30526;52.184;4.476;2022-07-29T01:05:04;8.00;;;1.50;;
44810;SDS011;30526;52.184;4.476;2022-07-29T01:07:31;4.23;;;0.93;;
44810;SDS011;30526;52.184;4.476;2022-07-29T01:09:58;2.35;;;0.80;;
44810;SDS011;30526;52.184;4.476;2022-07-29T01:12:25;2.28;;;1.10;;
44810;SDS011;30526;52.184;4.476;2022-07-29T01:14:52;4.38;;;0.88;;
44810;SDS011;30526;52.184;4.476;2022-07-29T01:17:30;3.20;;;0.85;;
44810;SDS011;30526;52.184;4.476;2022-07-29T01:20:10;1.98;;;1.35;;
44810;SDS011;30526;52.184;4.476;2022-07-29T01:22:52;1.75;;;0.90;;
44810;SDS011;30526;52.184;4.476;2022-07-29T01:30:32;2.80;;;1.20;;
44810;SDS011;30526;52.184;4.476;2022-07-29T01:33:03;2.53;;;0.90;;
44810;SDS011;30526;52.184;4.476;2022-07-29T01:35:33;1.98;;;0.90;;
44810;SDS011;30526;52.184;4.476;2022-07-29T01:38:09;1.25;;;0.90;;
44810;SDS011;30526;52.184;4.476;2022-07-29T01:43:39;0.98;;;0.82;;
44810;SDS011;30526;52.184;4.476;2022-07-29T01:46:09;2.97;;;1.45;;
44810;SDS011;30526;52.184;4.476;2022-07-29T01:48:47;4.35;;;0.93;;
44810;SDS011;30526;52.184;4.476;2022-07-29T01:51:17;4.18;;;1.10;;
44810;SDS011;30526;52.184;4.476;2022-07-29T01:53:46;2.28;;;0.80;;
44810;SDS011;30526;52.184;4.476;2022-07-29T01:56:13;6.03;;;1.38;;
44810;SDS011;30526;52.184;4.476;2022-07-29T01:58:40;2.60;;;1.20;;
44810;SDS011;30526;52.184;4.476;2022-07-29T02:01:08;3.78;;;1.00;;
44810;SDS011;30526;52.184;4.476;2022-07-29T02:03:35;5.00;;;1.10;;
44810;SDS011;30526;52.184;4.476;2022-07-29T02:06:02;3.45;;;1.00;;
44810;SDS011;30526;52.184;4.476;2022-07-29T02:08:28;1.30;;;1.20;;
44810;SDS011;30526;52.184;4.476;2022-07-29T02:10:56;6.78;;;1.58;;
44810;SDS011;30526;52.184;4.476;2022-07-29T02:13:23;2.00;;;0.93;;
44810;SDS011;30526;52.184;4.476;2022-07-29T02:15:49;3.17;;;1.37;;
44810;SDS011;30526;52.184;4.476;2022-07-29T02:18:17;1.52;;;1.40;;
44810;SDS011;30526;52.184;4.476;2022-07-29T02:20:44;1.30;;;0.70;;
44810;SDS011;30526;52.184;4.476;2022-07-29T02:23:11;2.60;;;1.13;;
44810;SDS011;30526;52.184;4.476;2022-07-29T02:25:38;2.15;;;1.13;;
44810;SDS011;30526;52.184;4.476;2022-07-29T02:28:05;2.65;;;0.80;;
44810;SDS011;30526;52.184;4.476;2022-07-29T02:30:32;2.47;;;1.13;;
44810;SDS011;30526;52.184;4.476;2022-07-29T02:32:58;1.67;;;0.93;;
44810;SDS011;30526;52.184;4.476;2022-07-29T02:35:24;4.05;;;1.50;;
44810;SDS011;30526;52.184;4.476;2022-07-29T02:37:51;2.40;;;1.20;;
44810;SDS011;30526;52.184;4.476;2022-07-29T02:40:37;2.53;;;1.20;;
44810;SDS011;30526;52.184;4.476;2022-07-29T02:43:04;2.40;;;1.27;;
44810;SDS011;30526;52.184;4.476;2022-07-29T02:45:31;1.67;;;1.15;;
44810;SDS011;30526;52.184;4.476;2022-07-29T02:47:57;1.33;;;0.70;;
44810;SDS011;30526;52.184;4.476;2022-07-29T02:52:54;3.15;;;1.00;;
44810;SDS011;30526;52.184;4.476;2022-07-29T02:55:33;6.55;;;1.33;;
44810;SDS011;30526;52.184;4.476;2022-07-29T02:58:03;4.32;;;1.45;;
44810;SDS011;30526;52.184;4.476;2022-07-29T03:00:31;2.75;;;1.40;;
44810;SDS011;30526;52.184;4.476;2022-07-29T03:02:59;2.72;;;1.42;;
44810;SDS011;30526;52.184;4.476;2022-07-29T03:05:25;3.35;;;1.05;;
44810;SDS011;30526;52.184;4.476;2022-07-29T03:07:55;5.25;;;1.73;;
44810;SDS011;30526;52.184;4.476;2022-07-29T03:10:23;4.97;;;1.45;;
44810;SDS011;30526;52.184;4.476;2022-07-29T03:12:50;4.03;;;1.42;;
44810;SDS011;30526;52.184;4.476;2022-07-29T03:15:17;1.92;;;0.85;;
44810;SDS011;30526;52.184;4.476;2022-07-29T03:17:43;4.20;;;2.07;;
44810;SDS011;30526;52.184;4.476;2022-07-29T03:20:10;1.88;;;1.35;;
44810;SDS011;30526;52.184;4.476;2022-07-29T03:22:39;5.82;;;1.73;;
44810;SDS011;30526;52.184;4.476;2022-07-29T03:25:11;4.05;;;1.80;;
44810;SDS011;30526;52.184;4.476;2022-07-29T03:27:37;1.23;;;1.10;;
44810;SDS011;30526;52.184;4.476;2022-07-29T03:30:04;4.80;;;1.42;;
44810;SDS011;30526;52.184;4.476;2022-07-29T03:32:30;3.77;;;1.73;;
44810;SDS011;30526;52.184;4.476;2022-07-29T03:34:56;2.90;;;1.42;;
44810;SDS011;30526;52.184;4.476;2022-07-29T03:37:22;3.80;;;1.73;;
44810;SDS011;30526;52.184;4.476;2022-07-29T03:39:48;3.13;;;1.48;;
44810;SDS011;30526;52.184;4.476;2022-07-29T03:42:15;3.47;;;1.75;;
44810;SDS011;30526;52.184;4.476;2022-07-29T03:44:42;2.35;;;1.50;;
44810;SDS011;30526;52.184;4.476;2022-07-29T03:47:09;3.83;;;1.50;;
44810;SDS011;30526;52.184;4.476;2022-07-29T03:49:36;4.35;;;1.80;;
44810;SDS011;30526;52.184;4.476;2022-07-29T03:52:03;3.90;;;1.50;;
44810;SDS011;30526;52.184;4.476;2022-07-29T03:54:29;5.10;;;1.80;;
44810;SDS011;30526;52.184;4.476;2022-07-29T03:56:55;6.22;;;2.00;;
44810;SDS011;30526;52.184;4.476;2022-07-29T03:59:23;4.38;;;1.42;;
44810;SDS011;30526;52.184;4.476;2022-07-29T04:01:49;3.55;;;1.55;;
44810;SDS011;30526;52.184;4.476;2022-07-29T04:04:15;3.60;;;1.42;;
44810;SDS011;30526;52.184;4.476;2022-07-29T04:06:42;3.03;;;1.42;;
44810;SDS011;30526;52.184;4.476;2022-07-29T04:09:09;3.55;;;1.77;;
44810;SDS011;30526;52.184;4.476;2022-07-29T04:11:35;7.40;;;1.92;;
44810;SDS011;30526;52.184;4.476;2022-07-29T04:14:02;2.77;;;1.13;;
44810;SDS011;30526;52.184;4.476;2022-07-29T04:16:28;4.38;;;1.73;;
44810;SDS011;30526;52.184;4.476;2022-07-29T04:18:53;6.63;;;1.60;;
44810;SDS011;30526;52.184;4.476;2022-07-29T04:21:19;6.05;;;1.60;;
44810;SDS011;30526;52.184;4.476;2022-07-29T04:23:45;3.40;;;1.65;;
44810;SDS011;30526;52.184;4.476;2022-07-29T04:26:14;3.83;;;1.33;;
44810;SDS011;30526;52.184;4.476;2022-07-29T04:28:40;4.82;;;1.95;;
44810;SDS011;30526;52.184;4.476;2022-07-29T04:31:07;3.90;;;1.73;;
44810;SDS011;30526;52.184;4.476;2022-07-29T04:33:33;2.63;;;1.60;;
44810;SDS011;30526;52.184;4.476;2022-07-29T04:35:59;4.20;;;1.55;;
44810;SDS011;30526;52.184;4.476;2022-07-29T04:38:25;4.22;;;1.60;;
44810;SDS011;30526;52.184;4.476;2022-07-29T04:40:51;6.55;;;1.55;;
44810;SDS011;30526;52.184;4.476;2022-07-29T04:43:17;3.92;;;1.60;;
44810;SDS011;30526;52.184;4.476;2022-07-29T04:45:43;2.03;;;1.30;;
44810;SDS011;30526;52.184;4.476;2022-07-29T04:48:09;4.97;;;1.50;;
44810;SDS011;30526;52.184;4.476;2022-07-29T04:55:33;1.77;;;1.40;;
44810;SDS011;30526;52.184;4.476;2022-07-29T04:57:59;5.32;;;1.70;;
44810;SDS011;30526;52.184;4.476;2022-07-29T05:00:25;2.65;;;1.45;;
44810;SDS011;30526;52.184;4.476;2022-07-29T05:02:51;4.40;;;1.67;;
44810;SDS011;30526;52.184;4.476;2022-07-29T05:05:17;2.50;;;1.38;;
44810;SDS011;30526;52.184;4.476;2022-07-29T05:07:43;8.18;;;1.52;;
44810;SDS011;30526;52.184;4.476;2022-07-29T05:10:09;2.10;;;1.48;;
44810;SDS011;30526;52.184;4.476;2022-07-29T05:12:36;2.55;;;1.02;;
44810;SDS011;30526;52.184;4.476;2022-07-29T05:15:02;1.83;;;1.45;;
44810;SDS011;30526;52.184;4.476;2022-07-29T05:17:28;3.15;;;1.50;;
44810;SDS011;30526;52.184;4.476;2022-07-29T05:19:54;3.28;;;1.27;;
44810;SDS011;30526;52.184;4.476;2022-07-29T05:22:20;5.95;;;1.20;;
44810;SDS011;30526;52.184;4.476;2022-07-29T05:24:47;6.90;;;1.35;;
44810;SDS011;30526;52.184;4.476;2022-07-29T05:27:13;3.88;;;1.48;;
44810;SDS011;30526;52.184;4.476;2022-07-29T05:29:38;3.08;;;1.33;;
44810;SDS011;30526;52.184;4.476;2022-07-29T05:32:05;4.75;;;1.40;;
44810;SDS011;30526;52.184;4.476;2022-07-29T05:34:31;3.45;;;1.60;;
44810;SDS011;30526;52.184;4.476;2022-07-29T05:36:57;3.78;;;1.33;;
44810;SDS011;30526;52.184;4.476;2022-07-29T05:39:23;2.60;;;1.48;;
44810;SDS011;30526;52.184;4.476;2022-07-29T05:41:49;2.63;;;1.50;;
44810;SDS011;30526;52.184;4.476;2022-07-29T05:44:15;5.40;;;1.50;;
44810;SDS011;30526;52.184;4.476;2022-07-29T05:46:41;4.07;;;1.73;;
44810;SDS011;30526;52.184;4.476;2022-07-29T05:49:07;3.35;;;1.50;;
44810;SDS011;30526;52.184;4.476;2022-07-29T05:51:34;3.03;;;1.55;;
44810;SDS011;30526;52.184;4.476;2022-07-29T05:54:00;4.47;;;1.60;;
44810;SDS011;30526;52.184;4.476;2022-07-29T05:56:26;4.97;;;1.20;;
44810;SDS011;30526;52.184;4.476;2022-07-29T05:58:52;2.92;;;1.48;;
44810;SDS011;30526;52.184;4.476;2022-07-29T06:01:18;4.75;;;1.70;;
44810;SDS011;30526;52.184;4.476;2022-07-29T06:03:45;2.55;;;1.30;;
44810;SDS011;30526;52.184;4.476;2022-07-29T06:06:11;6.28;;;1.38;;
44810;SDS011;30526;52.184;4.476;2022-07-29T06:08:37;5.75;;;1.55;;
44810;SDS011;30526;52.184;4.476;2022-07-29T06:11:05;4.30;;;1.60;;
44810;SDS011;30526;52.184;4.476;2022-07-29T06:13:31;3.17;;;1.33;;
44810;SDS011;30526;52.184;4.476;2022-07-29T06:15:57;2.28;;;1.60;;
44810;SDS011;30526;52.184;4.476;2022-07-29T06:18:23;3.47;;;1.40;;
44810;SDS011;30526;52.184;4.476;2022-07-29T06:20:49;3.15;;;1.20;;
44810;SDS011;30526;52.184;4.476;2022-07-29T06:23:16;2.67;;;1.30;;
44810;SDS011;30526;52.184;4.476;2022-07-29T06:25:42;4.35;;;1.42;;
44810;SDS011;30526;52.184;4.476;2022-07-29T06:28:08;2.78;;;1.30;;
44810;SDS011;30526;52.184;4.476;2022-07-29T06:30:34;5.85;;;1.60;;
44810;SDS011;30526;52.184;4.476;2022-07-29T06:33:00;3.03;;;1.33;;
44810;SDS011;30526;52.184;4.476;2022-07-29T06:35:27;4.93;;;1.90;;
44810;SDS011;30526;52.184;4.476;2022-07-29T06:37:53;4.50;;;1.50;;
44810;SDS011;30526;52.184;4.476;2022-07-29T06:40:19;2.13;;;1.27;;
44810;SDS011;30526;52.184;4.476;2022-07-29T06:43:03;7.63;;;1.70;;
44810;SDS011;30526;52.184;4.476;2022-07-29T06:45:30;2.33;;;1.48;;
44810;SDS011;30526;52.184;4.476;2022-07-29T06:47:56;3.60;;;1.65;;
44810;SDS011;30526;52.184;4.476;2022-07-29T06:50:22;3.85;;;1.70;;
44810;SDS011;30526;52.184;4.476;2022-07-29T06:52:48;4.90;;;1.70;;
44810;SDS011;30526;52.184;4.476;2022-07-29T06:55:13;5.18;;;1.75;;
44810;SDS011;30526;52.184;4.476;2022-07-29T06:57:39;3.80;;;1.80;;
44810;SDS011;30526;52.184;4.476;2022-07-29T07:00:06;4.18;;;1.52;;
44810;SDS011;30526;52.184;4.476;2022-07-29T07:02:32;8.20;;;1.60;;
44810;SDS011;30526;52.184;4.476;2022-07-29T07:04:58;2.42;;;1.40;;
44810;SDS011;30526;52.184;4.476;2022-07-29T07:07:24;4.03;;;1.63;;
44810;SDS011;30526;52.184;4.476;2022-07-29T07:09:50;5.95;;;1.80;;
44810;SDS011;30526;52.184;4.476;2022-07-29T07:12:16;2.50;;;1.17;;
44810;SDS011;30526;52.184;4.476;2022-07-29T07:14:42;3.20;;;1.65;;
44810;SDS011;30526;52.184;4.476;2022-07-29T07:17:08;3.65;;;1.60;;
44810;SDS011;30526;52.184;4.476;2022-07-29T07:19:34;3.95;;;1.70;;
44810;SDS011;30526;52.184;4.476;2022-07-29T07:22:00;4.03;;;1.50;;
44810;SDS011;30526;52.184;4.476;2022-07-29T07:24:26;3.10;;;1.63;;
44810;SDS011;30526;52.184;4.476;2022-07-29T07:26:52;3.63;;;1.73;;
44810;SDS011;30526;52.184;4.476;2022-07-29T07:29:18;3.45;;;1.42;;
44810;SDS011;30526;52.184;4.476;2022-07-29T07:31:44;2.50;;;1.50;;
44810;SDS011;30526;52.184;4.476;2022-07-29T07:34:10;2.38;;;1.73;;
44810;SDS011;30526;52.184;4.476;2022-07-29T07:36:36;6.32;;;2.00;;
44810;SDS011;30526;52.184;4.476;2022-07-29T07:39:02;2.85;;;2.08;;
44810;SDS011;30526;52.184;4.476;2022-07-29T07:41:29;3.17;;;1.92;;
44810;SDS011;30526;52.184;4.476;2022-07-29T07:43:55;8.73;;;2.35;;
44810;SDS011;30526;52.184;4.476;2022-07-29T07:46:21;4.45;;;2.13;;
44810;SDS011;30526;52.184;4.476;2022-07-29T07:48:47;4.43;;;1.70;;
44810;SDS011;30526;52.184;4.476;2022-07-29T07:51:13;6.57;;;2.00;;
44810;SDS011;30526;52.184;4.476;2022-07-29T07:53:39;4.20;;;1.75;;
44810;SDS011;30526;52.184;4.476;2022-07-29T07:56:05;4.03;;;2.20;;
44810;SDS011;30526;52.184;4.476;2022-07-29T07:58:32;2.88;;;1.75;;
44810;SDS011;30526;52.184;4.476;2022-07-29T08:00:59;4.18;;;1.95;;
44810;SDS011;30526;52.184;4.476;2022-07-29T08:03:25;3.53;;;1.92;;
44810;SDS011;30526;52.184;4.476;2022-07-29T08:05:51;4.88;;;2.00;;
44810;SDS011;30526;52.184;4.476;2022-07-29T08:08:19;10.27;;;2.35;;
44810;SDS011;30526;52.184;4.476;2022-07-29T08:10:45;2.88;;;1.88;;
44810;SDS011;30526;52.184;4.476;2022-07-29T08:13:17;7.25;;;2.25;;
44810;SDS011;30526;52.184;4.476;2022-07-29T08:15:44;3.70;;;1.80;;
44810;SDS011;30526;52.184;4.476;2022-07-29T08:18:11;3.38;;;1.80;;
44810;SDS011;30526;52.184;4.476;2022-07-29T08:20:37;8.52;;;2.35;;
44810;SDS011;30526;52.184;4.476;2022-07-29T08:23:05;3.08;;;1.23;;
44810;SDS011;30526;52.184;4.476;2022-07-29T08:25:40;3.92;;;2.00;;
44810;SDS011;30526;52.184;4.476;2022-07-29T08:28:06;4.43;;;2.17;;
44810;SDS011;30526;52.184;4.476;2022-07-29T08:30:32;3.22;;;1.80;;
44810;SDS011;30526;52.184;4.476;2022-07-29T08:32:58;4.07;;;1.90;;
44810;SDS011;30526;52.184;4.476;2022-07-29T08:35:24;4.13;;;1.90;;
44810;SDS011;30526;52.184;4.476;2022-07-29T08:37:51;3.03;;;1.60;;
44810;SDS011;30526;52.184;4.476;2022-07-29T08:40:17;5.43;;;1.73;;
44810;SDS011;30526;52.184;4.476;2022-07-29T08:42:43;5.93;;;1.58;;
44810;SDS011;30526;52.184;4.476;2022-07-29T08:45:09;4.78;;;1.77;;
44810;SDS011;30526;52.184;4.476;2022-07-29T08:47:35;2.58;;;1.50;;
44810;SDS011;30526;52.184;4.476;2022-07-29T08:50:04;4.10;;;1.90;;
44810;SDS011;30526;52.184;4.476;2022-07-29T08:52:30;6.15;;;1.80;;
44810;SDS011;30526;52.184;4.476;2022-07-29T08:54:58;3.97;;;1.80;;
44810;SDS011;30526;52.184;4.476;2022-07-29T08:57:24;5.00;;;2.17;;
44810;SDS011;30526;52.184;4.476;2022-07-29T08:59:51;7.10;;;1.90;;
44810;SDS011;30526;52.184;4.476;2022-07-29T09:02:21;3.17;;;1.33;;
44810;SDS011;30526;52.184;4.476;2022-07-29T09:04:48;4.38;;;1.83;;
44810;SDS011;30526;52.184;4.476;2022-07-29T09:07:15;3.78;;;1.67;;
44810;SDS011;30526;52.184;4.476;2022-07-29T09:09:41;7.95;;;1.65;;
44810;SDS011;30526;52.184;4.476;2022-07-29T09:12:08;4.45;;;1.63;;
44810;SDS011;30526;52.184;4.476;2022-07-29T09:14:36;4.57;;;1.75;;
44810;SDS011;30526;52.184;4.476;2022-07-29T09:17:02;2.80;;;1.55;;
44810;SDS011;30526;52.184;4.476;2022-07-29T09:19:32;5.80;;;2.00;;
44810;SDS011;30526;52.184;4.476;2022-07-29T09:22:02;4.85;;;2.15;;
44810;SDS011;30526;52.184;4.476;2022-07-29T09:24:39;3.03;;;1.45;;
44810;SDS011;30526;52.184;4.476;2022-07-29T09:27:07;5.55;;;1.83;;
44810;SDS011;30526;52.184;4.476;2022-07-29T09:29:33;6.57;;;2.10;;
44810;SDS011;30526;52.184;4.476;2022-07-29T09:31:59;3.40;;;1.88;;
44810;SDS011;30526;52.184;4.476;2022-07-29T09:34:26;5.97;;;1.80;;
44810;SDS011;30526;52.184;4.476;2022-07-29T09:36:53;4.20;;;1.90;;
44810;SDS011;30526;52.184;4.476;2022-07-29T09:39:30;5.80;;;1.98;;
44810;SDS011;30526;52.184;4.476;2022-07-29T09:41:57;6.63;;;2.40;;
44810;SDS011;30526;52.184;4.476;2022-07-29T09:46:53;4.70;;;2.23;;
44810;SDS011;30526;52.184;4.476;2022-07-29T09:49:20;3.50;;;1.80;;
44810;SDS011;30526;52.184;4.476;2022-07-29T09:51:45;6.25;;;2.10;;
44810;SDS011;30526;52.184;4.476;2022-07-29T09:54:24;11.00;;;2.43;;
44810;SDS011;30526;52.184;4.476;2022-07-29T09:56:51;7.78;;;2.17;;
44810;SDS011;30526;52.184;4.476;2022-07-29T09:59:18;4.35;;;2.30;;
44810;SDS011;30526;52.184;4.476;2022-07-29T10:01:46;6.00;;;1.73;;
44810;SDS011;30526;52.184;4.476;2022-07-29T10:04:15;4.80;;;2.10;;
44810;SDS011;30526;52.184;4.476;2022-07-29T10:06:56;5.57;;;1.88;;
44810;SDS011;30526;52.184;4.476;2022-07-29T10:09:23;5.63;;;1.90;;
44810;SDS011;30526;52.184;4.476;2022-07-29T10:12:05;5.33;;;1.97;;
44810;SDS011;30526;52.184;4.476;2022-07-29T10:14:32;5.38;;;1.90;;
44810;SDS011;30526;52.184;4.476;2022-07-29T10:17:02;7.22;;;2.03;;
44810;SDS011;30526;52.184;4.476;2022-07-29T10:19:29;5.13;;;1.83;;
44810;SDS011;30526;52.184;4.476;2022-07-29T10:21:56;5.13;;;2.15;;
44810;SDS011;30526;52.184;4.476;2022-07-29T10:24:23;4.32;;;2.45;;
44810;SDS011;30526;52.184;4.476;2022-07-29T10:29:15;10.20;;;2.22;;
44810;SDS011;30526;52.184;4.476;2022-07-29T10:31:44;4.30;;;2.33;;
44810;SDS011;30526;52.184;4.476;2022-07-29T10:34:20;8.35;;;2.38;;
44810;SDS011;30526;52.184;4.476;2022-07-29T10:36:56;4.53;;;2.03;;
44810;SDS011;30526;52.184;4.476;2022-07-29T10:42:05;4.97;;;2.30;;
44810;SDS011;30526;52.184;4.476;2022-07-29T10:44:32;8.13;;;1.83;;
44810;SDS011;30526;52.184;4.476;2022-07-29T10:46:58;8.05;;;2.10;;
44810;SDS011;30526;52.184;4.476;2022-07-29T10:49:24;7.28;;;2.17;;
44810;SDS011;30526;52.184;4.476;2022-07-29T10:54:18;4.03;;;1.67;;
44810;SDS011;30526;52.184;4.476;2022-07-29T10:56:44;4.80;;;1.80;;
44810;SDS011;30526;52.184;4.476;2022-07-29T11:01:49;1.55;;;1.13;;
44810;SDS011;30526;52.184;4.476;2022-07-29T11:04:15;4.78;;;2.00;;
44810;SDS011;30526;52.184;4.476;2022-07-29T11:09:27;2.67;;;1.60;;
44810;SDS011;30526;52.184;4.476;2022-07-29T11:11:55;5.82;;;1.75;;
44810;SDS011;30526;52.184;4.476;2022-07-29T11:17:05;5.32;;;1.38;;
44810;SDS011;30526;52.184;4.476;2022-07-29T11:19:32;5.70;;;1.52;;
44810;SDS011;30526;52.184;4.476;2022-07-29T11:21:59;4.55;;;1.30;;
44810;SDS011;30526;52.184;4.476;2022-07-29T11:24:26;3.95;;;1.30;;
44810;SDS011;30526;52.184;4.476;2022-07-29T11:27:32;6.78;;;1.20;;
44810;SDS011;30526;52.184;4.476;2022-07-29T11:29:55;6.30;;;1.48;;
44810;SDS011;30526;52.184;4.476;2022-07-29T11:32:22;6.38;;;1.92;;
44810;SDS011;30526;52.184;4.476;2022-07-29T11:37:16;3.80;;;1.40;;
44810;SDS011;30526;52.184;4.476;2022-07-29T11:44:56;6.40;;;2.40;;
44810;SDS011;30526;52.184;4.476;2022-07-29T11:47:22;4.20;;;2.15;;
44810;SDS011;30526;52.184;4.476;2022-07-29T11:49:49;8.98;;;2.42;;
44810;SDS011;30526;52.184;4.476;2022-07-29T11:52:19;7.90;;;2.47;;
44810;SDS011;30526;52.184;4.476;2022-07-29T11:54:46;6.68;;;1.48;;
44810;SDS011;30526;52.184;4.476;2022-07-29T11:57:13;4.15;;;1.40;;
44810;SDS011;30526;52.184;4.476;2022-07-29T12:02:09;4.80;;;2.20;;
44810;SDS011;30526;52.184;4.476;2022-07-29T12:07:35;4.47;;;2.10;;
44810;SDS011;30526;52.184;4.476;2022-07-29T12:10:02;3.67;;;2.33;;
44810;SDS011;30526;52.184;4.476;2022-07-29T12:12:28;6.95;;;1.95;;
44810;SDS011;30526;52.184;4.476;2022-07-29T12:14:54;6.43;;;1.88;;
44810;SDS011;30526;52.184;4.476;2022-07-29T12:17:31;10.45;;;2.50;;
44810;SDS011;30526;52.184;4.476;2022-07-29T12:24:53;7.28;;;1.85;;
44810;SDS011;30526;52.184;4.476;2022-07-29T12:27:19;7.38;;;2.33;;
44810;SDS011;30526;52.184;4.476;2022-07-29T12:29:54;7.22;;;1.48;;
44810;SDS011;30526;52.184;4.476;2022-07-29T12:32:21;7.57;;;2.15;;
44810;SDS011;30526;52.184;4.476;2022-07-29T12:34:47;5.10;;;2.70;;
44810;SDS011;30526;52.184;4.476;2022-07-29T12:37:13;6.18;;;2.67;;
44810;SDS011;30526;52.184;4.476;2022-07-29T12:39:39;8.63;;;2.30;;
44810;SDS011;30526;52.184;4.476;2022-07-29T12:42:12;8.52;;;1.85;;
44810;SDS011;30526;52.184;4.476;2022-07-29T12:44:47;6.47;;;2.22;;
44810;SDS011;30526;52.184;4.476;2022-07-29T12:47:14;4.32;;;2.25;;
44810;SDS011;30526;52.184;4.476;2022-07-29T12:49:40;6.70;;;2.53;;
44810;SDS011;30526;52.184;4.476;2022-07-29T12:54:51;4.22;;;1.80;;
44810;SDS011;30526;52.184;4.476;2022-07-29T12:57:17;7.28;;;2.83;;
44810;SDS011;30526;52.184;4.476;2022-07-29T12:59:42;5.07;;;1.90;;
44810;SDS011;30526;52.184;4.476;2022-07-29T13:02:20;6.80;;;1.93;;
44810;SDS011;30526;52.184;4.476;2022-07-29T13:04:54;4.68;;;1.83;;
44810;SDS011;30526;52.184;4.476;2022-07-29T13:07:25;2.38;;;1.90;;
44810;SDS011;30526;52.184;4.476;2022-07-29T13:09:52;4.63;;;1.83;;
44810;SDS011;30526;52.184;4.476;2022-07-29T13:12:19;6.05;;;2.05;;
44810;SDS011;30526;52.184;4.476;2022-07-29T13:14:46;5.38;;;2.00;;
44810;SDS011;30526;52.184;4.476;2022-07-29T13:19:48;7.40;;;1.90;;
44810;SDS011;30526;52.184;4.476;2022-07-29T13:22:19;4.97;;;1.80;;
44810;SDS011;30526;52.184;4.476;2022-07-29T13:24:46;2.83;;;1.90;;
44810;SDS011;30526;52.184;4.476;2022-07-29T13:27:19;4.50;;;1.60;;
44810;SDS011;30526;52.184;4.476;2022-07-29T13:29:46;3.47;;;1.65;;
44810;SDS011;30526;52.184;4.476;2022-07-29T13:32:12;4.95;;;1.77;;
44810;SDS011;30526;52.184;4.476;2022-07-29T13:34:38;5.10;;;1.90;;
44810;SDS011;30526;52.184;4.476;2022-07-29T13:37:04;3.53;;;1.60;;
44810;SDS011;30526;52.184;4.476;2022-07-29T13:39:31;4.43;;;2.00;;
44810;SDS011;30526;52.184;4.476;2022-07-29T13:41:57;5.10;;;2.13;;
44810;SDS011;30526;52.184;4.476;2022-07-29T13:44:23;5.22;;;2.35;;
44810;SDS011;30526;52.184;4.476;2022-07-29T13:46:49;4.60;;;1.70;;
44810;SDS011;30526;52.184;4.476;2022-07-29T13:49:15;4.73;;;1.50;;
44810;SDS011;30526;52.184;4.476;2022-07-29T13:51:41;5.00;;;1.83;;
44810;SDS011;30526;52.184;4.476;2022-07-29T13:54:07;2.63;;;1.73;;
44810;SDS011;30526;52.184;4.476;2022-07-29T13:56:33;6.00;;;1.70;;
44810;SDS011;30526;52.184;4.476;2022-07-29T13:58:59;4.82;;;1.70;;
44810;SDS011;30526;52.184;4.476;2022-07-29T14:01:25;5.95;;;2.13;;
44810;SDS011;30526;52.184;4.476;2022-07-29T14:03:51;3.65;;;1.80;;
44810;SDS011;30526;52.184;4.476;2022-07-29T14:06:17;8.88;;;1.88;;
44810;SDS011;30526;52.184;4.476;2022-07-29T14:08:44;9.77;;;1.80;;
44810;SDS011;30526;52.184;4.476;2022-07-29T14:11:10;5.90;;;1.97;;
44810;SDS011;30526;52.184;4.476;2022-07-29T14:13:36;2.87;;;1.53;;
44810;SDS011;30526;52.184;4.476;2022-07-29T14:16:02;2.97;;;1.20;;
44810;SDS011;30526;52.184;4.476;2022-07-29T14:18:28;7.15;;;1.70;;
44810;SDS011;30526;52.184;4.476;2022-07-29T14:20:54;3.95;;;1.58;;
44810;SDS011;30526;52.184;4.476;2022-07-29T14:23:20;5.95;;;1.73;;
44810;SDS011;30526;52.184;4.476;2022-07-29T14:25:46;3.70;;;1.38;;
44810;SDS011;30526;52.184;4.476;2022-07-29T14:28:12;5.10;;;1.38;;
44810;SDS011;30526;52.184;4.476;2022-07-29T14:30:38;6.38;;;2.33;;
44810;SDS011;30526;52.184;4.476;2022-07-29T14:33:04;4.72;;;1.55;;
44810;SDS011;30526;52.184;4.476;2022-07-29T14:35:30;5.30;;;1.70;;
44810;SDS011;30526;52.184;4.476;2022-07-29T14:37:56;5.50;;;1.40;;
44810;SDS011;30526;52.184;4.476;2022-07-29T14:40:22;6.15;;;1.60;;
44810;SDS011;30526;52.184;4.476;2022-07-29T14:42:48;2.88;;;1.30;;
44810;SDS011;30526;52.184;4.476;2022-07-29T14:45:14;3.90;;;1.73;;
44810;SDS011;30526;52.184;4.476;2022-07-29T14:47:40;5.78;;;1.45;;
44810;SDS011;30526;52.184;4.476;2022-07-29T14:50:06;4.60;;;1.30;;
44810;SDS011;30526;52.184;4.476;2022-07-29T14:54:58;5.18;;;1.58;;
44810;SDS011;30526;52.184;4.476;2022-07-29T14:57:24;6.97;;;1.98;;
44810;SDS011;30526;52.184;4.476;2022-07-29T14:59:50;5.13;;;1.67;;
44810;SDS011;30526;52.184;4.476;2022-07-29T15:02:16;7.85;;;1.55;;
44810;SDS011;30526;52.184;4.476;2022-07-29T15:04:42;4.40;;;1.42;;
44810;SDS011;30526;52.184;4.476;2022-07-29T15:07:10;7.20;;;1.98;;
44810;SDS011;30526;52.184;4.476;2022-07-29T15:09:36;7.05;;;1.70;;
44810;SDS011;30526;52.184;4.476;2022-07-29T15:12:02;4.90;;;1.45;;
44810;SDS011;30526;52.184;4.476;2022-07-29T15:14:29;5.68;;;1.70;;
44810;SDS011;30526;52.184;4.476;2022-07-29T15:16:56;3.22;;;1.30;;
44810;SDS011;30526;52.184;4.476;2022-07-29T15:19:22;7.63;;;1.80;;
44810;SDS011;30526;52.184;4.476;2022-07-29T15:21:48;9.30;;;1.90;;
44810;SDS011;30526;52.184;4.476;2022-07-29T15:24:17;4.05;;;1.40;;
44810;SDS011;30526;52.184;4.476;2022-07-29T15:26:43;7.10;;;2.35;;
44810;SDS011;30526;52.184;4.476;2022-07-29T15:29:09;5.50;;;2.30;;
44810;SDS011;30526;52.184;4.476;2022-07-29T15:31:35;4.57;;;1.70;;
44810;SDS011;30526;52.184;4.476;2022-07-29T15:34:01;3.88;;;1.35;;
44810;SDS011;30526;52.184;4.476;2022-07-29T15:36:27;4.47;;;1.38;;
44810;SDS011;30526;52.184;4.476;2022-07-29T15:38:53;4.20;;;1.77;;
44810;SDS011;30526;52.184;4.476;2022-07-29T15:41:20;5.85;;;1.80;;
44810;SDS011;30526;52.184;4.476;2022-07-29T15:43:46;4.60;;;1.55;;
44810;SDS011;30526;52.184;4.476;2022-07-29T15:46:13;6.22;;;1.85;;
44810;SDS011;30526;52.184;4.476;2022-07-29T15:48:58;4.90;;;1.50;;